sensor_id;sensor_type;location;lat;lon;timestamp;pressure;altitude;pressure_sealevel;temperature;humidity
42761;BME280;31672;47.638;19.026;2023-05-20T00:04:19;100539.25;;;13.35;100.00
42761;BME280;31672;47.638;19.026;2023-05-20T00:09:23;100532.59;;;13.31;100.00
42761;BME280;31672;47.638;19.026;2023-05-20T00:14:26;100526.13;;;13.25;100.00
42761;BME280;31672;47.638;19.026;2023-05-20T00:19:29;100507.28;;;13.19;100.00
42761;BME280;31672;47.638;19.026;2023-05-20T00:24:33;100502.66;;;13.12;100.00
42761;BME280;31672;47.638;19.026;2023-05-20T00:29:36;100506.16;;;13.13;100.00
42761;BME280;31672;47.638;19.026;2023-05-20T00:34:39;100494.84;;;13.11;100.00
42761;BME280;31672;47.638;19.026;2023-05-20T00:39:42;100507.66;;;13.16;100.00
42761;BME280;31672;47.638;19.026;2023-05-20T00:44:44;100491.28;;;13.19;100.00
42761;BME280;31672;47.638;19.026;2023-05-20T00:49:49;100498.78;;;13.23;100.00
42761;BME280;31672;47.638;19.026;2023-05-20T00:54:53;100496.59;;;13.27;100.00
42761;BME280;31672;47.638;19.026;2023-05-20T00:59:56;100498.59;;;13.25;100.00
42761;BME280;31672;47.638;19.026;2023-05-20T01:04:59;100501.13;;;13.26;100.00
42761;BME280;31672;47.638;19.026;2023-05-20T01:10:02;100500.66;;;13.15;100.00
42761;BME280;31672;47.638;19.026;2023-05-20T01:15:11;100505.06;;;13.07;100.00
42761;BME280;31672;47.638;19.026;2023-05-20T01:20:15;100507.09;;;12.97;100.00
42761;BME280;31672;47.638;19.026;2023-05-20T01:25:19;100506.97;;;12.91;100.00
42761;BME280;31672;47.638;19.026;2023-05-20T01:30:27;100506.31;;;12.89;100.00
42761;BME280;31672;47.638;19.026;2023-05-20T01:35:31;100517.34;;;12.85;100.00
42761;BME280;31672;47.638;19.026;2023-05-20T01:40:35;100510.88;;;12.80;100.00
42761;BME280;31672;47.638;19.026;2023-05-20T01:45:41;100519.19;;;12.77;100.00
42761;BME280;31672;47.638;19.026;2023-05-20T01:50:44;100515.06;;;12.74;100.00
42761;BME280;31672;47.638;19.026;2023-05-20T01:55:48;100518.91;;;12.72;100.00
42761;BME280;31672;47.638;19.026;2023-05-20T02:00:51;100518.59;;;12.67;100.00
42761;BME280;31672;47.638;19.026;2023-05-20T02:05:54;100504.66;;;12.56;100.00
42761;BME280;31672;47.638;19.026;2023-05-20T02:10:57;100510.16;;;12.55;100.00
42761;BME280;31672;47.638;19.026;2023-05-20T02:16:00;100514.16;;;12.51;100.00
42761;BME280;31672;47.638;19.026;2023-05-20T02:21:04;100512.69;;;12.48;100.00
42761;BME280;31672;47.638;19.026;2023-05-20T02:26:08;100522.19;;;12.43;100.00
42761;BME280;31672;47.638;19.026;2023-05-20T02:31:11;100513.22;;;12.36;100.00
42761;BME280;31672;47.638;19.026;2023-05-20T02:36:14;100515.25;;;12.25;100.00
42761;BME280;31672;47.638;19.026;2023-05-20T02:41:18;100520.44;;;12.19;100.00
42761;BME280;31672;47.638;19.026;2023-05-20T02:46:23;100517.78;;;12.11;100.00
42761;BME280;31672;47.638;19.026;2023-05-20T02:51:26;100534.94;;;12.08;100.00
42761;BME280;31672;47.638;19.026;2023-05-20T02:56:29;100532.78;;;12.03;100.00
42761;BME280;31672;47.638;19.026;2023-05-20T03:01:32;100534.28;;;11.98;100.00
42761;BME280;31672;47.638;19.026;2023-05-20T03:06:37;100537.63;;;12.00;100.00
42761;BME280;31672;47.638;19.026;2023-05-20T03:11:40;100535.47;;;11.95;100.00
42761;BME280;31672;47.638;19.026;2023-05-20T03:16:43;100537.44;;;11.93;100.00
42761;BME280;31672;47.638;19.026;2023-05-20T03:21:46;100543.13;;;11.90;100.00
42761;BME280;31672;47.638;19.026;2023-05-20T03:26:49;100549.44;;;11.89;100.00
42761;BME280;31672;47.638;19.026;2023-05-20T03:31:52;100545.97;;;11.89;100.00
42761;BME280;31672;47.638;19.026;2023-05-20T03:36:55;100547.44;;;11.91;100.00
42761;BME280;31672;47.638;19.026;2023-05-20T03:42:00;100547.94;;;11.95;100.00
42761;BME280;31672;47.638;19.026;2023-05-20T03:47:03;100552.91;;;11.98;100.00
42761;BME280;31672;47.638;19.026;2023-05-20T03:52:06;100566.91;;;12.08;100.00
42761;BME280;31672;47.638;19.026;2023-05-20T03:57:10;100561.22;;;12.11;100.00
42761;BME280;31672;47.638;19.026;2023-05-20T04:02:13;100565.72;;;12.11;100.00
42761;BME280;31672;47.638;19.026;2023-05-20T04:07:16;100562.72;;;12.22;100.00
42761;BME280;31672;47.638;19.026;2023-05-20T04:12:19;100566.69;;;12.34;100.00
42761;BME280;31672;47.638;19.026;2023-05-20T04:17:22;100572.66;;;12.44;100.00
42761;BME280;31672;47.638;19.026;2023-05-20T04:22:26;100567.97;;;12.54;100.00
42761;BME280;31672;47.638;19.026;2023-05-20T04:27:29;100569.91;;;12.69;100.00
42761;BME280;31672;47.638;19.026;2023-05-20T04:32:33;100580.69;;;12.83;100.00
42761;BME280;31672;47.638;19.026;2023-05-20T04:37:37;100578.94;;;12.99;100.00
42761;BME280;31672;47.638;19.026;2023-05-20T04:42:39;100582.56;;;13.14;100.00
42761;BME280;31672;47.638;19.026;2023-05-20T04:47:43;100578.31;;;13.28;100.00
42761;BME280;31672;47.638;19.026;2023-05-20T04:52:47;100581.53;;;13.46;100.00
42761;BME280;31672;47.638;19.026;2023-05-20T04:57:51;100587.09;;;13.68;100.00
42761;BME280;31672;47.638;19.026;2023-05-20T05:02:54;100570.91;;;13.84;100.00
42761;BME280;31672;47.638;19.026;2023-05-20T05:07:57;100571.81;;;14.14;100.00
42761;BME280;31672;47.638;19.026;2023-05-20T05:13:01;100569.16;;;14.43;100.00
42761;BME280;31672;47.638;19.026;2023-05-20T05:18:04;100564.66;;;14.73;100.00
42761;BME280;31672;47.638;19.026;2023-05-20T05:23:07;100570.53;;;14.98;100.00
42761;BME280;31672;47.638;19.026;2023-05-20T05:28:10;100579.66;;;15.19;100.00
42761;BME280;31672;47.638;19.026;2023-05-20T05:33:14;100578.47;;;15.43;100.00
42761;BME280;31672;47.638;19.026;2023-05-20T05:38:17;100570.00;;;15.61;100.00
42761;BME280;31672;47.638;19.026;2023-05-20T05:43:20;100578.22;;;15.81;100.00
42761;BME280;31672;47.638;19.026;2023-05-20T05:48:23;100575.03;;;15.92;100.00
42761;BME280;31672;47.638;19.026;2023-05-20T05:53:26;100584.44;;;16.09;100.00
42761;BME280;31672;47.638;19.026;2023-05-20T05:58:30;100587.69;;;16.26;100.00
42761;BME280;31672;47.638;19.026;2023-05-20T06:03:34;100589.66;;;16.45;100.00
42761;BME280;31672;47.638;19.026;2023-05-20T06:08:37;100591.84;;;16.63;100.00
42761;BME280;31672;47.638;19.026;2023-05-20T06:13:40;100594.41;;;16.78;100.00
42761;BME280;31672;47.638;19.026;2023-05-20T06:18:45;100591.19;;;16.96;100.00
42761;BME280;31672;47.638;19.026;2023-05-20T06:23:49;100583.81;;;17.11;97.43
42761;BME280;31672;47.638;19.026;2023-05-20T06:28:52;100591.91;;;17.24;90.20
42761;BME280;31672;47.638;19.026;2023-05-20T06:33:55;100587.84;;;17.35;88.82
42761;BME280;31672;47.638;19.026;2023-05-20T06:38:58;100582.91;;;17.52;88.44
42761;BME280;31672;47.638;19.026;2023-05-20T06:44:02;100583.78;;;17.72;88.15
42761;BME280;31672;47.638;19.026;2023-05-20T06:49:05;100573.03;;;17.85;87.14
42761;BME280;31672;47.638;19.026;2023-05-20T06:54:07;100566.44;;;17.95;82.08
42761;BME280;31672;47.638;19.026;2023-05-20T06:59:10;100567.03;;;18.10;85.49
42761;BME280;31672;47.638;19.026;2023-05-20T07:04:13;100559.59;;;18.25;81.46
42761;BME280;31672;47.638;19.026;2023-05-20T07:09:17;100564.72;;;18.40;79.50
42761;BME280;31672;47.638;19.026;2023-05-20T07:14:20;100562.03;;;18.53;78.82
42761;BME280;31672;47.638;19.026;2023-05-20T07:19:23;100559.28;;;18.66;78.17
42761;BME280;31672;47.638;19.026;2023-05-20T07:24:26;100546.63;;;18.80;77.13
42761;BME280;31672;47.638;19.026;2023-05-20T07:29:29;100527.50;;;19.02;79.21
42761;BME280;31672;47.638;19.026;2023-05-20T07:34:33;100541.88;;;19.20;74.17
42761;BME280;31672;47.638;19.026;2023-05-20T07:39:36;100540.34;;;19.38;69.87
42761;BME280;31672;47.638;19.026;2023-05-20T07:44:38;100545.84;;;19.49;67.63
42761;BME280;31672;47.638;19.026;2023-05-20T07:49:41;100546.84;;;19.62;65.62
42761;BME280;31672;47.638;19.026;2023-05-20T07:54:45;100548.53;;;19.81;66.23
42761;BME280;31672;47.638;19.026;2023-05-20T07:59:49;100546.31;;;19.96;65.05
42761;BME280;31672;47.638;19.026;2023-05-20T08:04:52;100532.13;;;20.08;64.13
42761;BME280;31672;47.638;19.026;2023-05-20T08:09:56;100528.53;;;20.14;62.78
42761;BME280;31672;47.638;19.026;2023-05-20T08:14:59;100534.09;;;20.19;64.94
42761;BME280;31672;47.638;19.026;2023-05-20T08:20:02;100528.63;;;20.25;61.82
42761;BME280;31672;47.638;19.026;2023-05-20T08:25:08;100523.38;;;20.30;62.82
42761;BME280;31672;47.638;19.026;2023-05-20T08:30:11;100522.25;;;20.38;64.21
42761;BME280;31672;47.638;19.026;2023-05-20T08:35:14;100505.34;;;20.49;63.58
42761;BME280;31672;47.638;19.026;2023-05-20T08:40:18;100503.38;;;20.56;63.77
42761;BME280;31672;47.638;19.026;2023-05-20T08:45:23;100510.88;;;20.73;62.95
42761;BME280;31672;47.638;19.026;2023-05-20T08:50:30;100500.13;;;20.84;63.23
42761;BME280;31672;47.638;19.026;2023-05-20T08:55:41;100497.88;;;21.00;63.51
42761;BME280;31672;47.638;19.026;2023-05-20T09:00:44;100484.50;;;21.17;60.21
42761;BME280;31672;47.638;19.026;2023-05-20T09:05:48;100488.72;;;21.31;61.27
42761;BME280;31672;47.638;19.026;2023-05-20T09:10:51;100479.47;;;21.50;60.69
42761;BME280;31672;47.638;19.026;2023-05-20T09:15:55;100476.91;;;21.67;60.58
42761;BME280;31672;47.638;19.026;2023-05-20T09:21:04;100485.03;;;21.79;57.96
42761;BME280;31672;47.638;19.026;2023-05-20T09:26:10;100482.44;;;21.84;58.13
42761;BME280;31672;47.638;19.026;2023-05-20T09:31:14;100476.53;;;21.99;58.67
42761;BME280;31672;47.638;19.026;2023-05-20T09:36:19;100468.19;;;22.12;59.39
42761;BME280;31672;47.638;19.026;2023-05-20T09:41:29;100468.53;;;22.27;56.89
42761;BME280;31672;47.638;19.026;2023-05-20T09:46:36;100445.44;;;22.36;57.25
42761;BME280;31672;47.638;19.026;2023-05-20T09:51:41;100443.44;;;22.43;56.00
42761;BME280;31672;47.638;19.026;2023-05-20T09:56:46;100429.06;;;22.43;53.64
42761;BME280;31672;47.638;19.026;2023-05-20T10:01:49;100426.66;;;22.58;55.26
42761;BME280;31672;47.638;19.026;2023-05-20T10:12:44;100415.72;;;22.82;51.82
42761;BME280;31672;47.638;19.026;2023-05-20T10:23:31;100404.22;;;23.03;49.38
42761;BME280;31672;47.638;19.026;2023-05-20T10:28:37;100410.97;;;23.17;50.83
42761;BME280;31672;47.638;19.026;2023-05-20T10:33:44;100398.16;;;23.30;52.00
42761;BME280;31672;47.638;19.026;2023-05-20T10:38:57;100379.97;;;23.47;49.44
42761;BME280;31672;47.638;19.026;2023-05-20T10:44:04;100374.47;;;23.59;50.45
42761;BME280;31672;47.638;19.026;2023-05-20T10:49:18;100380.28;;;23.67;49.26
42761;BME280;31672;47.638;19.026;2023-05-20T10:54:24;100377.63;;;23.89;50.80
42761;BME280;31672;47.638;19.026;2023-05-20T10:59:28;100367.47;;;24.01;48.06
42761;BME280;31672;47.638;19.026;2023-05-20T11:04:31;100371.69;;;24.14;48.91
42761;BME280;31672;47.638;19.026;2023-05-20T11:09:34;100358.81;;;24.26;47.15
42761;BME280;31672;47.638;19.026;2023-05-20T11:14:37;100352.34;;;24.33;46.93
42761;BME280;31672;47.638;19.026;2023-05-20T11:19:40;100354.91;;;24.39;44.42
42761;BME280;31672;47.638;19.026;2023-05-20T11:24:43;100353.31;;;24.43;43.21
42761;BME280;31672;47.638;19.026;2023-05-20T11:29:49;100350.25;;;24.62;45.97
42761;BME280;31672;47.638;19.026;2023-05-20T11:34:52;100351.66;;;24.69;44.55
42761;BME280;31672;47.638;19.026;2023-05-20T11:40:07;100348.69;;;24.71;43.92
42761;BME280;31672;47.638;19.026;2023-05-20T11:45:13;100344.81;;;24.62;43.80
42761;BME280;31672;47.638;19.026;2023-05-20T11:50:16;100336.94;;;24.60;42.75
42761;BME280;31672;47.638;19.026;2023-05-20T11:55:20;100337.00;;;24.70;44.21
42761;BME280;31672;47.638;19.026;2023-05-20T12:00:23;100334.94;;;24.82;45.27
42761;BME280;31672;47.638;19.026;2023-05-20T12:05:30;100339.34;;;24.89;41.51
42761;BME280;31672;47.638;19.026;2023-05-20T12:10:34;100343.13;;;24.88;41.99
42761;BME280;31672;47.638;19.026;2023-05-20T12:15:39;100334.13;;;24.82;42.19
42761;BME280;31672;47.638;19.026;2023-05-20T12:20:42;100330.69;;;24.92;42.72
42761;BME280;31672;47.638;19.026;2023-05-20T12:25:45;100316.25;;;24.91;41.56
42761;BME280;31672;47.638;19.026;2023-05-20T12:30:52;100318.63;;;25.09;43.29
42761;BME280;31672;47.638;19.026;2023-05-20T12:35:55;100318.69;;;25.20;42.40
42761;BME280;31672;47.638;19.026;2023-05-20T12:40:58;100308.41;;;25.27;44.42
42761;BME280;31672;47.638;19.026;2023-05-20T12:46:01;100313.34;;;25.35;41.54
42761;BME280;31672;47.638;19.026;2023-05-20T12:51:04;100303.84;;;25.43;40.06
42761;BME280;31672;47.638;19.026;2023-05-20T12:56:07;100303.63;;;25.44;40.11
42761;BME280;31672;47.638;19.026;2023-05-20T13:01:10;100295.28;;;25.66;40.93
42761;BME280;31672;47.638;19.026;2023-05-20T13:06:13;100289.13;;;25.81;41.21
42761;BME280;31672;47.638;19.026;2023-05-20T13:11:17;100283.88;;;25.69;39.08
42761;BME280;31672;47.638;19.026;2023-05-20T13:16:20;100287.72;;;25.78;40.14
42761;BME280;31672;47.638;19.026;2023-05-20T13:21:23;100276.53;;;25.70;39.69
42761;BME280;31672;47.638;19.026;2023-05-20T13:26:26;100275.97;;;25.68;39.43
42761;BME280;31672;47.638;19.026;2023-05-20T13:31:29;100273.59;;;25.76;40.51
42761;BME280;31672;47.638;19.026;2023-05-20T13:36:32;100267.00;;;25.67;38.64
42761;BME280;31672;47.638;19.026;2023-05-20T13:41:36;100250.66;;;25.62;37.79
42761;BME280;31672;47.638;19.026;2023-05-20T13:46:39;100257.81;;;25.73;39.31
42761;BME280;31672;47.638;19.026;2023-05-20T13:51:42;100253.50;;;26.03;42.06
42761;BME280;31672;47.638;19.026;2023-05-20T13:56:45;100251.94;;;26.22;40.10
42761;BME280;31672;47.638;19.026;2023-05-20T14:01:48;100247.25;;;26.02;39.58
42761;BME280;31672;47.638;19.026;2023-05-20T14:06:51;100262.72;;;25.81;39.50
42761;BME280;31672;47.638;19.026;2023-05-20T14:11:54;100252.66;;;25.82;40.93
42761;BME280;31672;47.638;19.026;2023-05-20T14:16:58;100253.94;;;25.69;38.74
42761;BME280;31672;47.638;19.026;2023-05-20T14:22:01;100246.41;;;25.86;40.48
42761;BME280;31672;47.638;19.026;2023-05-20T14:27:05;100244.53;;;25.97;38.75
42761;BME280;31672;47.638;19.026;2023-05-20T14:32:08;100240.16;;;25.96;38.84
42761;BME280;31672;47.638;19.026;2023-05-20T14:37:13;100232.84;;;26.12;39.25
42761;BME280;31672;47.638;19.026;2023-05-20T14:42:17;100227.66;;;26.05;39.82
42761;BME280;31672;47.638;19.026;2023-05-20T14:47:20;100218.69;;;26.05;40.12
42761;BME280;31672;47.638;19.026;2023-05-20T14:52:24;100227.13;;;26.19;38.41
42761;BME280;31672;47.638;19.026;2023-05-20T14:57:27;100226.59;;;26.32;38.18
42761;BME280;31672;47.638;19.026;2023-05-20T15:02:30;100227.47;;;26.53;37.96
42761;BME280;31672;47.638;19.026;2023-05-20T15:07:33;100225.25;;;26.80;36.62
42761;BME280;31672;47.638;19.026;2023-05-20T15:12:36;100223.34;;;26.81;36.34
42761;BME280;31672;47.638;19.026;2023-05-20T15:17:39;100208.94;;;26.65;36.32
42761;BME280;31672;47.638;19.026;2023-05-20T15:22:43;100210.56;;;26.51;37.05
42761;BME280;31672;47.638;19.026;2023-05-20T15:27:49;100214.34;;;26.29;37.35
42761;BME280;31672;47.638;19.026;2023-05-20T15:32:53;100206.44;;;26.23;37.49
42761;BME280;31672;47.638;19.026;2023-05-20T15:37:56;100214.31;;;26.19;38.70
42761;BME280;31672;47.638;19.026;2023-05-20T15:42:59;100200.97;;;26.33;39.67
42761;BME280;31672;47.638;19.026;2023-05-20T15:48:02;100197.50;;;26.48;39.02
42761;BME280;31672;47.638;19.026;2023-05-20T15:53:06;100199.13;;;26.49;38.42
42761;BME280;31672;47.638;19.026;2023-05-20T15:58:11;100186.56;;;26.22;38.44
42761;BME280;31672;47.638;19.026;2023-05-20T16:03:14;100186.00;;;26.20;40.24
42761;BME280;31672;47.638;19.026;2023-05-20T16:08:18;100195.00;;;26.26;39.95
42761;BME280;31672;47.638;19.026;2023-05-20T16:13:22;100195.81;;;26.06;39.53
42761;BME280;31672;47.638;19.026;2023-05-20T16:18:26;100188.97;;;25.88;39.63
42761;BME280;31672;47.638;19.026;2023-05-20T16:23:32;100194.03;;;25.64;38.51
42761;BME280;31672;47.638;19.026;2023-05-20T16:28:36;100189.56;;;25.32;39.85
42761;BME280;31672;47.638;19.026;2023-05-20T16:33:40;100183.78;;;25.19;40.31
42761;BME280;31672;47.638;19.026;2023-05-20T16:38:43;100189.94;;;25.04;40.37
42761;BME280;31672;47.638;19.026;2023-05-20T16:43:46;100202.63;;;24.88;41.50
42761;BME280;31672;47.638;19.026;2023-05-20T16:48:49;100201.41;;;24.69;41.34
42761;BME280;31672;47.638;19.026;2023-05-20T16:53:52;100201.75;;;24.45;40.31
42761;BME280;31672;47.638;19.026;2023-05-20T16:58:55;100209.13;;;24.23;41.85
42761;BME280;31672;47.638;19.026;2023-05-20T17:03:58;100195.91;;;23.99;42.16
42761;BME280;31672;47.638;19.026;2023-05-20T17:09:01;100198.66;;;23.77;43.38
42761;BME280;31672;47.638;19.026;2023-05-20T17:14:20;100205.47;;;23.58;44.09
42761;BME280;31672;47.638;19.026;2023-05-20T17:19:23;100203.91;;;23.40;43.58
42761;BME280;31672;47.638;19.026;2023-05-20T17:24:26;100204.75;;;23.24;44.57
42761;BME280;31672;47.638;19.026;2023-05-20T17:29:29;100212.19;;;23.12;46.11
42761;BME280;31672;47.638;19.026;2023-05-20T17:34:32;100209.25;;;22.96;47.51
42761;BME280;31672;47.638;19.026;2023-05-20T17:39:35;100219.59;;;22.83;45.93
42761;BME280;31672;47.638;19.026;2023-05-20T17:44:38;100217.16;;;22.64;46.55
42761;BME280;31672;47.638;19.026;2023-05-20T17:49:41;100215.75;;;22.45;48.21
42761;BME280;31672;47.638;19.026;2023-05-20T17:54:44;100217.53;;;22.23;50.11
42761;BME280;31672;47.638;19.026;2023-05-20T17:59:47;100220.31;;;21.99;51.38
42761;BME280;31672;47.638;19.026;2023-05-20T18:04:50;100219.72;;;21.69;52.47
42761;BME280;31672;47.638;19.026;2023-05-20T18:09:54;100226.16;;;21.39;53.78
42761;BME280;31672;47.638;19.026;2023-05-20T18:14:57;100221.59;;;21.04;55.31
42761;BME280;31672;47.638;19.026;2023-05-20T18:20:00;100226.75;;;20.71;57.12
42761;BME280;31672;47.638;19.026;2023-05-20T18:25:03;100233.13;;;20.35;57.76
42761;BME280;31672;47.638;19.026;2023-05-20T18:30:08;100224.44;;;20.02;58.60
42761;BME280;31672;47.638;19.026;2023-05-20T18:35:11;100223.09;;;19.82;59.29
42761;BME280;31672;47.638;19.026;2023-05-20T18:40:15;100238.81;;;19.66;59.97
42761;BME280;31672;47.638;19.026;2023-05-20T18:45:18;100244.34;;;19.53;60.66
42761;BME280;31672;47.638;19.026;2023-05-20T18:50:21;100249.16;;;19.33;60.88
42761;BME280;31672;47.638;19.026;2023-05-20T18:55:24;100242.47;;;19.17;61.14
42761;BME280;31672;47.638;19.026;2023-05-20T19:00:27;100257.28;;;19.08;62.13
42761;BME280;31672;47.638;19.026;2023-05-20T19:05:30;100251.31;;;18.81;63.20
42761;BME280;31672;47.638;19.026;2023-05-20T19:10:34;100252.88;;;18.63;64.72
42761;BME280;31672;47.638;19.026;2023-05-20T19:15:37;100263.78;;;18.43;66.13
42761;BME280;31672;47.638;19.026;2023-05-20T19:20:40;100266.81;;;18.22;66.89
42761;BME280;31672;47.638;19.026;2023-05-20T19:25:43;100270.88;;;18.00;68.22
42761;BME280;31672;47.638;19.026;2023-05-20T19:30:46;100267.63;;;17.84;68.72
42761;BME280;31672;47.638;19.026;2023-05-20T19:35:49;100268.88;;;17.69;70.00
42761;BME280;31672;47.638;19.026;2023-05-20T19:40:53;100275.56;;;17.53;70.43
42761;BME280;31672;47.638;19.026;2023-05-20T19:45:55;100281.38;;;17.43;70.38
42761;BME280;31672;47.638;19.026;2023-05-20T19:51:00;100276.03;;;17.36;70.67
42761;BME280;31672;47.638;19.026;2023-05-20T19:56:03;100280.59;;;17.29;70.57
42761;BME280;31672;47.638;19.026;2023-05-20T20:01:07;100272.75;;;17.21;71.32
42761;BME280;31672;47.638;19.026;2023-05-20T20:06:10;100275.66;;;17.06;72.86
42761;BME280;31672;47.638;19.026;2023-05-20T20:11:13;100286.81;;;16.90;74.11
42761;BME280;31672;47.638;19.026;2023-05-20T20:16:16;100282.28;;;16.77;74.78
42761;BME280;31672;47.638;19.026;2023-05-20T20:21:19;100290.50;;;16.69;75.60
42761;BME280;31672;47.638;19.026;2023-05-20T20:26:22;100277.50;;;16.59;76.01
42761;BME280;31672;47.638;19.026;2023-05-20T20:31:27;100276.66;;;16.52;76.58
42761;BME280;31672;47.638;19.026;2023-05-20T20:36:31;100277.28;;;16.48;77.32
42761;BME280;31672;47.638;19.026;2023-05-20T20:41:36;100278.50;;;16.39;78.17
42761;BME280;31672;47.638;19.026;2023-05-20T20:46:40;100265.47;;;16.22;78.93
42761;BME280;31672;47.638;19.026;2023-05-20T20:51:46;100267.31;;;16.15;79.56
42761;BME280;31672;47.638;19.026;2023-05-20T20:56:49;100266.03;;;16.04;80.33
42761;BME280;31672;47.638;19.026;2023-05-20T21:01:53;100265.22;;;15.97;81.35
42761;BME280;31672;47.638;19.026;2023-05-20T21:06:57;100265.41;;;15.96;81.37
42761;BME280;31672;47.638;19.026;2023-05-20T21:12:05;100273.63;;;15.94;81.80
42761;BME280;31672;47.638;19.026;2023-05-20T21:17:08;100270.13;;;15.94;81.25
42761;BME280;31672;47.638;19.026;2023-05-20T21:22:11;100269.09;;;15.95;81.58
42761;BME280;31672;47.638;19.026;2023-05-20T21:27:14;100270.56;;;15.97;81.26
42761;BME280;31672;47.638;19.026;2023-05-20T21:32:17;100273.03;;;15.99;81.26
42761;BME280;31672;47.638;19.026;2023-05-20T21:37:20;100273.25;;;15.97;80.96
42761;BME280;31672;47.638;19.026;2023-05-20T21:42:23;100278.00;;;15.95;80.66
42761;BME280;31672;47.638;19.026;2023-05-20T21:47:27;100265.19;;;15.91;81.24
42761;BME280;31672;47.638;19.026;2023-05-20T21:52:29;100265.19;;;15.91;81.73
42761;BME280;31672;47.638;19.026;2023-05-20T21:57:33;100260.22;;;15.88;81.83
42761;BME280;31672;47.638;19.026;2023-05-20T22:02:36;100265.16;;;15.84;82.16
42761;BME280;31672;47.638;19.026;2023-05-20T22:07:40;100265.16;;;15.84;82.63
42761;BME280;31672;47.638;19.026;2023-05-20T22:12:45;100258.53;;;15.80;82.57
42761;BME280;31672;47.638;19.026;2023-05-20T22:17:49;100275.88;;;15.84;82.21
42761;BME280;31672;47.638;19.026;2023-05-20T22:22:52;100276.50;;;15.86;82.92
42761;BME280;31672;47.638;19.026;2023-05-20T22:27:55;100273.22;;;15.84;82.32
42761;BME280;31672;47.638;19.026;2023-05-20T22:32:58;100272.16;;;15.85;82.32
42761;BME280;31672;47.638;19.026;2023-05-20T22:38:01;100269.28;;;15.87;82.13
42761;BME280;31672;47.638;19.026;2023-05-20T22:43:05;100271.34;;;15.85;82.07
42761;BME280;31672;47.638;19.026;2023-05-20T22:48:08;100269.25;;;15.80;82.47
42761;BME280;31672;47.638;19.026;2023-05-20T22:53:11;100275.22;;;15.75;83.13
42761;BME280;31672;47.638;19.026;2023-05-20T22:58:14;100275.63;;;15.72;83.38
42761;BME280;31672;47.638;19.026;2023-05-20T23:03:18;100282.03;;;15.71;83.23
42761;BME280;31672;47.638;19.026;2023-05-20T23:08:20;100280.78;;;15.74;82.99
42761;BME280;31672;47.638;19.026;2023-05-20T23:13:23;100284.72;;;15.78;83.09
42761;BME280;31672;47.638;19.026;2023-05-20T23:18:27;100281.81;;;15.73;82.18
42761;BME280;31672;47.638;19.026;2023-05-20T23:23:30;100279.94;;;15.67;82.64
42761;BME280;31672;47.638;19.026;2023-05-20T23:28:34;100281.56;;;15.68;83.29
42761;BME280;31672;47.638;19.026;2023-05-20T23:33:36;100290.25;;;15.76;83.71
42761;BME280;31672;47.638;19.026;2023-05-20T23:38:40;100290.25;;;15.76;83.15
42761;BME280;31672;47.638;19.026;2023-05-20T23:43:43;100269.25;;;15.80;83.66
42761;BME280;31672;47.638;19.026;2023-05-20T23:48:46;100279.63;;;15.96;82.14
42761;BME280;31672;47.638;19.026;2023-05-20T23:53:52;100271.41;;;16.04;81.94
42761;BME280;31672;47.638;19.026;2023-05-20T23:58:56;100262.94;;;16.01;80.76
